Estación Meteorológica Peña el Pijo (Robertgarden) [ 10/20/18 08:19:57 CEST ]

Fecha Hora Presion(HPa) Temp (°C) Humedad % Rocio (°C) Viento ( m/s) Direccion Lluvia 1Hora(mm) Lluvia 24H(mm) LLuvia Total(mm)
2018-Jun-08 01:01:28 1009.400 12.2 74 7.7         266.25
2018-Jun-08 02:01:39 1009.100 11.4 76 7.3         266.25
2018-Jun-08 03:01:38 1008.500 10.8 77 6.9         266.25
2018-Jun-08 04:01:43 1007.900 11.2 78 7.5         266.25
2018-Jun-08 05:01:39 1007.700 11.5 78 7.8         266.25
2018-Jun-08 06:01:44 1007.600 11.6 79 8.1         266.25
2018-Jun-08 07:01:36 1007.400 10.9 80 7.6         266.25
2018-Jun-08 08:01:50 1007.600 12.2 82 9.2         266.25
2018-Jun-08 09:01:50 1007.300 15.9 80 12.5         266.25
2018-Jun-08 10:01:33 1007.200 19.9 64 12.9         266.25
2018-Jun-08 11:01:47 1006.900 25.7 44 12.5         266.25
2018-Jun-08 12:01:50 1006.600 27.6 36 11.1         266.25
2018-Jun-08 13:02:16 1006.400 27.3 32 9.1         266.25
2018-Jun-08 14:01:58 1006.100 27.1 32 8.9         266.25
2018-Jun-08 15:01:39 1005.500 28.4 30 9.2 1.2 NE     266.25
2018-Jun-08 16:01:56 1005.500 27.9 34 10.5         266.25
2018-Jun-08 17:01:47 1005.100 23.5 45 10.8         266.25
2018-Jun-08 18:01:49 1005.400 21.8 49 10.6         266.25
2018-Jun-08 19:01:56 1005.000 22.3 49 11.0         266.25
2018-Jun-08 20:01:38 1005.100 21.6 51 11.0         266.25
2018-Jun-08 21:01:57 1005.600 19.8 54 10.2         266.25
2018-Jun-08 22:01:51 1005.800 17.8 59 9.6         266.25
2018-Jun-08 23:01:37 1006.800 15.4 66 9.1         266.25

Temperatura Máxima:28°    Temperatura Mínima:10°
Presión Máxima:1009.400 Hpa    Presión Mínima:1005.000 Hpa


Volver